Time;durP1;ratioP1;P1;durP2;ratioP2;P2;SDS_P1;SDS_P2;PMS_P1;PMS_P2;Temp;Humidity;BMP_temperature;BMP_pressure;BME280_temperature;BME280_humidity;BME280_pressure;Samples;Min_cycle;Max_cycle;Signal;HPM_P1;HPM_P2
2023/09/27 00:02:12;;;;;;;57.03;3.00;;;;;;;;;;5131227;27;20448;-69
2023/09/27 00:04:39;;;;;;;58.03;3.00;;;;;;;;;;5131184;27;20832;-70
2023/09/27 00:07:06;;;;;;;57.97;3.53;;;;;;;;;;5131061;27;20488;-70
2023/09/27 00:09:33;;;;;;;57.70;3.00;;;;;;;;;;5131207;27;20451;-70
2023/09/27 00:12:04;;;;;;;57.30;3.17;;;;;;;;;;5131273;27;20440;-70
2023/09/27 00:14:33;;;;;;;57.00;3.00;;;;;;;;;;5131241;27;20483;-70
2023/09/27 00:17:00;;;;;;;58.83;3.60;;;;;;;;;;5130688;27;20943;-70
2023/09/27 00:19:27;;;;;;;57.10;2.60;;;;;;;;;;5131262;27;20448;-70
2023/09/27 00:21:54;;;;;;;56.90;2.40;;;;;;;;;;5131173;27;20445;-70
2023/09/27 00:24:21;;;;;;;56.80;2.67;;;;;;;;;;5134783;27;20441;-70
2023/09/27 00:26:48;;;;;;;57.20;2.60;;;;;;;;;;5134600;27;20449;-70
2023/09/27 00:29:15;;;;;;;56.80;2.70;;;;;;;;;;5134399;27;20480;-70
2023/09/27 00:31:43;;;;;;;57.27;3.17;;;;;;;;;;5134930;27;20877;-70
2023/09/27 00:34:11;;;;;;;57.40;3.90;;;;;;;;;;5134712;27;20437;-70
2023/09/27 00:36:38;;;;;;;56.77;2.47;;;;;;;;;;5134671;27;20452;-70
2023/09/27 00:39:05;;;;;;;57.50;3.00;;;;;;;;;;5134167;27;20455;-70
2023/09/27 00:41:32;;;;;;;56.67;2.30;;;;;;;;;;5134384;27;20440;-70
2023/09/27 00:43:59;;;;;;;57.87;3.37;;;;;;;;;;5134210;27;20480;-70
2023/09/27 00:46:26;;;;;;;57.73;3.43;;;;;;;;;;5134224;27;20517;-70
2023/09/27 00:48:55;;;;;;;57.20;2.50;;;;;;;;;;5143697;27;20483;-69
2023/09/27 00:51:22;;;;;;;56.67;2.80;;;;;;;;;;5154886;27;20451;-69
2023/09/27 00:53:49;;;;;;;57.07;3.20;;;;;;;;;;5155273;27;20444;-69
2023/09/27 00:56:17;;;;;;;56.87;2.90;;;;;;;;;;5154786;27;20448;-70
2023/09/27 00:58:44;;;;;;;56.77;3.10;;;;;;;;;;5154388;27;20462;-70
2023/09/27 01:01:15;;;;;;;57.37;2.70;;;;;;;;;;5155100;27;20440;-70
2023/09/27 01:03:43;;;;;;;56.77;2.60;;;;;;;;;;5154832;27;20508;-70
2023/09/27 01:06:12;;;;;;;56.80;2.60;;;;;;;;;;5125473;27;20932;-70
2023/09/27 01:08:39;;;;;;;56.57;2.50;;;;;;;;;;5133572;27;20489;-70
2023/09/27 01:11:06;;;;;;;57.70;3.50;;;;;;;;;;5133691;27;20447;-70
2023/09/27 01:13:34;;;;;;;56.90;2.80;;;;;;;;;;5133829;27;20531;-70
2023/09/27 01:16:01;;;;;;;56.87;2.50;;;;;;;;;;5133770;27;20444;-69
2023/09/27 01:18:28;;;;;;;57.90;2.57;;;;;;;;;;5133633;27;20487;-70
2023/09/27 01:20:55;;;;;;;57.10;3.13;;;;;;;;;;5134067;27;20440;-68
2023/09/27 01:23:24;;;;;;;56.90;2.73;;;;;;;;;;5133626;27;20445;-71
2023/09/27 01:25:54;;;;;;;56.40;2.63;;;;;;;;;;5133194;27;20925;-69
2023/09/27 01:28:21;;;;;;;56.90;3.23;;;;;;;;;;5133442;27;20489;-71
2023/09/27 01:30:48;;;;;;;56.77;2.53;;;;;;;;;;5133452;27;20459;-70
2023/09/27 01:33:15;;;;;;;56.83;2.93;;;;;;;;;;5133031;27;20959;-70
2023/09/27 01:35:43;;;;;;;56.80;2.67;;;;;;;;;;5133269;27;20447;-70
2023/09/27 01:38:10;;;;;;;56.63;2.33;;;;;;;;;;5132964;27;20461;-70
2023/09/27 01:40:40;;;;;;;56.87;2.83;;;;;;;;;;5133302;27;20445;-70
2023/09/27 01:43:07;;;;;;;57.67;2.83;;;;;;;;;;5133176;27;20517;-70
2023/09/27 01:45:35;;;;;;;57.20;3.00;;;;;;;;;;5133341;27;20815;-70
2023/09/27 01:48:02;;;;;;;56.57;2.43;;;;;;;;;;5133189;27;20855;-70
2023/09/27 01:50:31;;;;;;;57.57;3.00;;;;;;;;;;5132787;27;20461;-70
2023/09/27 01:52:58;;;;;;;56.50;2.30;;;;;;;;;;5133407;27;20497;-70
2023/09/27 01:55:25;;;;;;;56.80;2.50;;;;;;;;;;5132616;27;20453;-70
2023/09/27 01:57:54;;;;;;;57.10;2.70;;;;;;;;;;5132505;27;20986;-70
2023/09/27 02:00:21;;;;;;;56.33;2.50;;;;;;;;;;5132779;27;20449;-70
2023/09/27 02:02:50;;;;;;;56.83;2.90;;;;;;;;;;5132608;27;20905;-69
2023/09/27 02:05:18;;;;;;;56.80;2.17;;;;;;;;;;5132548;27;20920;-70
2023/09/27 02:07:45;;;;;;;57.10;3.13;;;;;;;;;;5132911;27;20484;-70
2023/09/27 02:10:12;;;;;;;58.03;3.53;;;;;;;;;;5132231;27;20441;-70
2023/09/27 02:12:40;;;;;;;57.20;3.40;;;;;;;;;;5132468;27;20899;-70
2023/09/27 02:15:09;;;;;;;56.53;2.57;;;;;;;;;;5132357;27;20448;-70
2023/09/27 02:17:36;;;;;;;57.20;3.40;;;;;;;;;;5132305;27;20469;-70
2023/09/27 02:20:06;;;;;;;57.10;2.50;;;;;;;;;;5132234;27;20963;-70
2023/09/27 02:22:33;;;;;;;57.00;2.80;;;;;;;;;;5132531;27;20456;-70
2023/09/27 02:25:01;;;;;;;57.60;3.30;;;;;;;;;;5132187;27;20447;-70
2023/09/27 02:27:28;;;;;;;56.93;2.67;;;;;;;;;;5133089;27;20465;-70
2023/09/27 02:29:55;;;;;;;63.73;2.87;;;;;;;;;;5135157;27;20467;-70
2023/09/27 02:32:24;;;;;;;57.37;2.70;;;;;;;;;;5142423;27;20555;-70
2023/09/27 02:34:52;;;;;;;57.20;3.10;;;;;;;;;;5142734;27;20462;-69
2023/09/27 02:37:20;;;;;;;57.13;3.00;;;;;;;;;;5142483;27;20472;-70
2023/09/27 02:39:48;;;;;;;57.20;2.93;;;;;;;;;;5142493;27;20441;-68
2023/09/27 02:42:15;;;;;;;56.80;2.40;;;;;;;;;;5142927;27;20449;-69
2023/09/27 02:44:42;;;;;;;56.57;2.70;;;;;;;;;;5142830;27;20445;-69
2023/09/27 02:47:09;;;;;;;57.30;2.87;;;;;;;;;;5143169;27;20474;-70
2023/09/27 02:49:37;;;;;;;57.60;2.73;;;;;;;;;;5142281;27;20484;-69
2023/09/27 02:52:06;;;;;;;56.47;2.37;;;;;;;;;;5142676;27;20509;-69
2023/09/27 02:54:34;;;;;;;57.93;3.47;;;;;;;;;;5142026;27;20517;-69
2023/09/27 02:57:01;;;;;;;60.20;3.53;;;;;;;;;;5142760;27;20441;-69
2023/09/27 02:59:29;;;;;;;56.80;2.70;;;;;;;;;;5143220;27;20472;-71
2023/09/27 03:01:56;;;;;;;56.53;2.33;;;;;;;;;;5142931;27;20456;-70
2023/09/27 03:04:24;;;;;;;57.30;3.40;;;;;;;;;;5142149;27;20547;-70
2023/09/27 03:06:52;;;;;;;57.00;2.70;;;;;;;;;;5134226;27;20452;-70
2023/09/27 03:09:19;;;;;;;56.77;2.77;;;;;;;;;;5132708;27;20484;-70
2023/09/27 03:11:47;;;;;;;56.90;2.70;;;;;;;;;;5140698;27;20441;-70
2023/09/27 03:14:14;;;;;;;56.90;2.90;;;;;;;;;;5147044;27;20515;-70
2023/09/27 03:16:42;;;;;;;56.83;2.97;;;;;;;;;;5134072;27;20475;-69
2023/09/27 03:19:09;;;;;;;56.80;2.80;;;;;;;;;;5132991;27;20536;-70
2023/09/27 03:21:36;;;;;;;57.10;3.17;;;;;;;;;;5132285;27;20452;-70
2023/09/27 03:24:06;;;;;;;56.87;2.50;;;;;;;;;;5131619;27;20440;-70
2023/09/27 03:26:33;;;;;;;57.50;3.20;;;;;;;;;;5131466;27;20536;-70
2023/09/27 03:29:00;;;;;;;57.07;2.93;;;;;;;;;;5131465;27;20519;-70
2023/09/27 03:31:28;;;;;;;56.77;2.57;;;;;;;;;;5131638;27;20728;-70
2023/09/27 03:33:55;;;;;;;56.63;2.47;;;;;;;;;;5131623;27;20449;-70
2023/09/27 03:36:22;;;;;;;69.90;4.10;;;;;;;;;;5131531;27;20489;-70
2023/09/27 03:38:49;;;;;;;57.17;3.23;;;;;;;;;;5131703;27;20461;-70
2023/09/27 03:41:18;;;;;;;56.87;3.03;;;;;;;;;;5132046;27;20440;-70
2023/09/27 03:43:45;;;;;;;58.77;3.00;;;;;;;;;;5133125;27;20444;-70
2023/09/27 03:46:12;;;;;;;57.10;3.07;;;;;;;;;;5134176;27;20475;-70
2023/09/27 03:48:39;;;;;;;56.70;2.67;;;;;;;;;;5133921;27;20541;-70
2023/09/27 03:51:07;;;;;;;56.80;2.77;;;;;;;;;;5131851;27;20463;-70
2023/09/27 03:53:35;;;;;;;58.17;3.00;;;;;;;;;;5131587;27;20741;-70
2023/09/27 03:56:02;;;;;;;56.70;2.70;;;;;;;;;;5131465;27;20499;-70
2023/09/27 03:58:30;;;;;;;56.80;2.70;;;;;;;;;;5135612;27;21020;-69
2023/09/27 04:00:57;;;;;;;56.70;2.70;;;;;;;;;;5135351;27;20441;-70
2023/09/27 04:03:25;;;;;;;56.63;2.70;;;;;;;;;;5135104;27;20444;-70
2023/09/27 04:05:52;;;;;;;56.47;2.37;;;;;;;;;;5135324;27;20441;-70
2023/09/27 04:08:19;;;;;;;56.63;2.57;;;;;;;;;;5134942;27;20978;-70
2023/09/27 04:10:46;;;;;;;56.87;2.67;;;;;;;;;;5134668;27;20523;-70
2023/09/27 04:13:13;;;;;;;57.17;2.87;;;;;;;;;;5135286;27;20447;-69
2023/09/27 04:15:41;;;;;;;57.30;3.93;;;;;;;;;;5134928;27;20441;-69
2023/09/27 04:18:08;;;;;;;56.87;3.13;;;;;;;;;;5134574;27;20844;-70
2023/09/27 04:20:36;;;;;;;56.70;2.53;;;;;;;;;;5134958;27;20468;-70
2023/09/27 04:23:03;;;;;;;56.97;3.33;;;;;;;;;;5134689;27;20452;-70
2023/09/27 04:25:31;;;;;;;56.97;2.93;;;;;;;;;;5134774;27;20824;-70
2023/09/27 04:27:58;;;;;;;57.10;2.80;;;;;;;;;;5134721;27;20504;-70
2023/09/27 04:30:25;;;;;;;57.33;3.43;;;;;;;;;;5134410;27;20484;-70
2023/09/27 04:32:53;;;;;;;57.93;4.00;;;;;;;;;;5134551;27;20448;-70
2023/09/27 04:35:21;;;;;;;56.90;2.43;;;;;;;;;;5126347;27;20920;-70
2023/09/27 04:37:48;;;;;;;61.60;3.30;;;;;;;;;;5134568;27;20550;-70
2023/09/27 04:40:15;;;;;;;57.90;3.00;;;;;;;;;;5134248;27;20933;-70
2023/09/27 04:42:42;;;;;;;56.80;2.60;;;;;;;;;;5134342;27;20451;-70
2023/09/27 04:45:10;;;;;;;57.20;2.80;;;;;;;;;;5134116;27;20510;-70
2023/09/27 04:47:37;;;;;;;56.97;2.50;;;;;;;;;;5134471;27;20511;-70
2023/09/27 04:50:09;;;;;;;56.80;2.60;;;;;;;;;;5134049;27;20486;-70
2023/09/27 04:52:36;;;;;;;56.53;2.60;;;;;;;;;;5134523;27;20564;-69
2023/09/27 04:55:05;;;;;;;56.87;3.10;;;;;;;;;;5134030;27;20521;-70
2023/09/27 04:57:32;;;;;;;56.43;2.60;;;;;;;;;;5133958;27;20476;-70
2023/09/27 04:59:59;;;;;;;56.17;2.50;;;;;;;;;;5133998;27;20447;-70
2023/09/27 05:02:27;;;;;;;57.00;3.00;;;;;;;;;;5134052;27;20543;-70
2023/09/27 05:04:54;;;;;;;57.67;3.33;;;;;;;;;;5133977;27;20449;-70
2023/09/27 05:07:22;;;;;;;56.43;2.47;;;;;;;;;;5133680;27;20465;-69
2023/09/27 05:09:50;;;;;;;56.27;2.20;;;;;;;;;;5132966;27;20476;-69
2023/09/27 05:12:17;;;;;;;56.70;2.60;;;;;;;;;;5133783;27;20449;-70
2023/09/27 05:14:44;;;;;;;56.67;3.00;;;;;;;;;;5133907;27;20440;-69
2023/09/27 05:17:11;;;;;;;56.47;2.30;;;;;;;;;;5133557;27;20464;-69
2023/09/27 05:19:38;;;;;;;56.17;2.40;;;;;;;;;;5133507;27;20451;-69
2023/09/27 05:22:05;;;;;;;58.87;2.80;;;;;;;;;;5133698;27;20445;-69
2023/09/27 05:24:38;;;;;;;56.60;2.60;;;;;;;;;;5133399;27;20543;-69
2023/09/27 05:27:06;;;;;;;58.00;4.00;;;;;;;;;;5133576;27;20574;-69
2023/09/27 05:29:33;;;;;;;56.40;2.30;;;;;;;;;;5132882;27;20529;-69
2023/09/27 05:32:00;;;;;;;56.17;2.27;;;;;;;;;;5133569;27;20448;-69
2023/09/27 05:34:30;;;;;;;56.50;2.50;;;;;;;;;;5133479;27;20560;-70
2023/09/27 05:36:57;;;;;;;56.60;2.40;;;;;;;;;;5133216;27;20797;-69
2023/09/27 05:39:25;;;;;;;56.47;2.30;;;;;;;;;;5133144;27;20440;-69
2023/09/27 05:41:53;;;;;;;57.10;3.00;;;;;;;;;;5133404;27;20433;-69
2023/09/27 05:44:20;;;;;;;56.37;2.43;;;;;;;;;;5133280;27;20800;-69
2023/09/27 05:46:47;;;;;;;57.00;2.70;;;;;;;;;;5133091;27;20443;-69
2023/09/27 05:49:15;;;;;;;56.80;2.70;;;;;;;;;;5132458;27;20483;-70
2023/09/27 05:51:43;;;;;;;56.37;2.60;;;;;;;;;;5133055;27;20453;-70
2023/09/27 05:54:10;;;;;;;56.63;2.40;;;;;;;;;;5132882;27;20449;-70
2023/09/27 05:56:38;;;;;;;56.57;2.70;;;;;;;;;;5133269;27;20502;-70
2023/09/27 05:59:08;;;;;;;56.37;2.60;;;;;;;;;;5132423;27;20537;-70
2023/09/27 06:01:35;;;;;;;56.90;3.40;;;;;;;;;;5132999;27;20453;-69
2023/09/27 06:04:03;;;;;;;56.73;3.07;;;;;;;;;;5132855;27;20445;-70
2023/09/27 06:06:30;;;;;;;56.47;2.40;;;;;;;;;;5132610;27;20471;-70
2023/09/27 06:08:58;;;;;;;56.90;2.87;;;;;;;;;;5132598;27;20467;-70
2023/09/27 06:11:25;;;;;;;57.50;3.43;;;;;;;;;;5132936;27;20449;-69
2023/09/27 06:13:52;;;;;;;56.57;3.00;;;;;;;;;;5132875;27;20816;-69
2023/09/27 06:16:21;;;;;;;56.43;2.30;;;;;;;;;;5132548;27;20449;-69
2023/09/27 06:18:49;;;;;;;56.53;2.90;;;;;;;;;;5132540;27;20475;-69
2023/09/27 06:21:16;;;;;;;56.50;2.50;;;;;;;;;;5131353;27;20505;-70
2023/09/27 06:23:43;;;;;;;56.80;2.87;;;;;;;;;;5132404;27;20441;-70
2023/09/27 06:26:10;;;;;;;56.97;3.27;;;;;;;;;;5132712;27;20441;-70
2023/09/27 06:28:38;;;;;;;56.57;2.50;;;;;;;;;;5132235;27;20876;-70
2023/09/27 06:31:06;;;;;;;56.80;2.83;;;;;;;;;;5132232;27;20484;-70
2023/09/27 06:33:38;;;;;;;57.47;3.37;;;;;;;;;;5132688;27;20497;-70
2023/09/27 06:36:06;;;;;;;56.70;2.50;;;;;;;;;;5132361;27;20445;-69
2023/09/27 06:38:33;;;;;;;56.80;2.50;;;;;;;;;;5131982;27;20460;-70
2023/09/27 06:41:00;;;;;;;57.00;3.20;;;;;;;;;;5132192;27;20437;-70
2023/09/27 06:43:29;;;;;;;56.40;2.43;;;;;;;;;;5132649;27;20449;-69
2023/09/27 06:45:56;;;;;;;56.63;2.80;;;;;;;;;;5132014;27;20455;-69
2023/09/27 06:48:25;;;;;;;56.37;2.20;;;;;;;;;;5131866;27;20810;-71
2023/09/27 06:50:53;;;;;;;56.90;3.03;;;;;;;;;;5131937;27;20480;-70
2023/09/27 06:53:21;;;;;;;57.30;3.93;;;;;;;;;;5132116;27;21028;-70
2023/09/27 06:55:49;;;;;;;56.73;2.63;;;;;;;;;;5132083;27;20451;-70
2023/09/27 06:58:22;;;;;;;57.00;3.33;;;;;;;;;;5131513;27;20469;-70
2023/09/27 07:00:50;;;;;;;56.47;2.70;;;;;;;;;;5131749;27;20453;-70
2023/09/27 07:03:19;;;;;;;56.90;2.93;;;;;;;;;;5131916;27;20506;-71
2023/09/27 07:05:46;;;;;;;56.47;2.60;;;;;;;;;;5131767;27;20449;-70
2023/09/27 07:08:15;;;;;;;56.83;3.03;;;;;;;;;;5131650;27;20559;-70
2023/09/27 07:10:42;;;;;;;56.47;3.00;;;;;;;;;;5131530;27;20480;-70
2023/09/27 07:13:09;;;;;;;57.00;2.90;;;;;;;;;;5131547;27;20795;-70
2023/09/27 07:15:37;;;;;;;57.00;2.83;;;;;;;;;;5131998;27;20862;-70
2023/09/27 07:18:04;;;;;;;56.50;2.50;;;;;;;;;;5131399;27;20472;-70
2023/09/27 07:20:34;;;;;;;57.10;2.80;;;;;;;;;;5131646;27;20441;-70
2023/09/27 07:23:04;;;;;;;56.77;2.73;;;;;;;;;;5131652;27;20543;-71
2023/09/27 07:25:35;;;;;;;56.97;3.27;;;;;;;;;;5131546;27;20445;-70
2023/09/27 07:28:03;;;;;;;57.30;3.20;;;;;;;;;;5131676;27;20517;-70
2023/09/27 07:30:30;;;;;;;56.60;2.50;;;;;;;;;;5131330;27;20698;-70
2023/09/27 07:32:57;;;;;;;57.20;3.60;;;;;;;;;;5135146;27;20441;-70
2023/09/27 07:35:28;;;;;;;57.30;3.70;;;;;;;;;;5135630;27;20455;-70
2023/09/27 07:37:55;;;;;;;56.60;2.60;;;;;;;;;;5135588;27;20511;-70
2023/09/27 07:40:23;;;;;;;57.10;3.30;;;;;;;;;;5135906;27;20441;-71
2023/09/27 07:42:52;;;;;;;57.20;3.03;;;;;;;;;;5135791;27;20445;-71
2023/09/27 07:45:21;;;;;;;56.50;2.47;;;;;;;;;;5135619;27;20501;-70
2023/09/27 07:47:50;;;;;;;56.93;3.10;;;;;;;;;;5135444;27;20963;-71
2023/09/27 07:50:17;;;;;;;56.53;2.70;;;;;;;;;;5132397;27;20484;-71
2023/09/27 07:52:44;;;;;;;56.57;2.97;;;;;;;;;;5134695;27;20451;-71
2023/09/27 07:55:14;;;;;;;56.80;2.97;;;;;;;;;;5133521;27;20445;-71
2023/09/27 07:57:43;;;;;;;56.80;2.90;;;;;;;;;;5134514;27;20840;-70
2023/09/27 08:00:15;;;;;;;56.90;2.77;;;;;;;;;;5134699;27;20452;-71
2023/09/27 08:02:42;;;;;;;57.40;2.97;;;;;;;;;;5134640;27;20484;-70
2023/09/27 08:05:10;;;;;;;56.43;2.50;;;;;;;;;;5135167;27;20449;-70
2023/09/27 08:07:38;;;;;;;57.30;2.77;;;;;;;;;;5154885;27;20474;-71
2023/09/27 08:10:05;;;;;;;57.20;2.90;;;;;;;;;;5155189;27;20480;-72
2023/09/27 08:12:32;;;;;;;56.93;3.23;;;;;;;;;;5155175;27;20555;-71
2023/09/27 08:15:00;;;;;;;58.40;3.10;;;;;;;;;;5155133;27;20443;-69
2023/09/27 08:17:28;;;;;;;57.40;3.30;;;;;;;;;;5155238;27;20985;-70
2023/09/27 08:19:55;;;;;;;56.90;2.90;;;;;;;;;;5154644;27;20440;-71
2023/09/27 08:22:22;;;;;;;56.60;2.70;;;;;;;;;;5154962;27;20439;-70
2023/09/27 08:24:49;;;;;;;56.97;3.23;;;;;;;;;;5154823;27;20450;-71
2023/09/27 08:27:18;;;;;;;56.70;2.90;;;;;;;;;;5154454;27;20464;-71
2023/09/27 08:29:45;;;;;;;56.67;2.90;;;;;;;;;;5154208;27;21024;-71
2023/09/27 08:32:12;;;;;;;56.60;3.13;;;;;;;;;;5154992;27;20443;-72
2023/09/27 08:34:41;;;;;;;58.13;3.10;;;;;;;;;;5155463;27;20462;-70
2023/09/27 08:37:11;;;;;;;57.10;3.70;;;;;;;;;;5154809;27;21160;-69
2023/09/27 08:39:38;;;;;;;56.57;2.80;;;;;;;;;;5155295;27;20443;-70
2023/09/27 08:42:06;;;;;;;58.40;3.43;;;;;;;;;;5154970;27;21079;-69
2023/09/27 08:44:34;;;;;;;57.33;3.07;;;;;;;;;;5153910;27;20543;-71
2023/09/27 08:47:03;;;;;;;56.37;2.60;;;;;;;;;;5154472;27;20480;-70
2023/09/27 08:49:30;;;;;;;57.53;3.00;;;;;;;;;;5154465;27;20448;-69
2023/09/27 08:51:58;;;;;;;56.50;2.70;;;;;;;;;;5154108;27;20446;-70
2023/09/27 08:54:26;;;;;;;56.57;2.13;;;;;;;;;;5154577;27;20448;-72
2023/09/27 08:56:53;;;;;;;58.50;2.50;;;;;;;;;;5154677;27;20456;-70
2023/09/27 08:59:20;;;;;;;56.23;2.20;;;;;;;;;;5154458;27;20448;-72
2023/09/27 09:01:48;;;;;;;56.80;2.80;;;;;;;;;;5154649;27;20977;-71
2023/09/27 09:04:15;;;;;;;56.40;2.63;;;;;;;;;;5154332;27;20444;-71
2023/09/27 09:06:43;;;;;;;56.67;2.90;;;;;;;;;;5154210;27;20444;-71
2023/09/27 09:09:11;;;;;;;56.37;2.80;;;;;;;;;;5153445;27;20448;-71
2023/09/27 09:11:39;;;;;;;56.47;2.60;;;;;;;;;;5154902;27;20483;-71
2023/09/27 09:14:06;;;;;;;56.67;2.53;;;;;;;;;;5154623;27;20444;-71
2023/09/27 09:16:39;;;;;;;56.60;2.43;;;;;;;;;;5154726;27;20474;-70
2023/09/27 09:19:19;;;;;;;57.00;2.77;;;;;;;;;;5154408;27;20502;-71
2023/09/27 09:21:47;;;;;;;58.90;3.10;;;;;;;;;;5154547;27;20443;-71
2023/09/27 09:24:21;;;;;;;56.80;2.80;;;;;;;;;;5154190;27;20448;-72
2023/09/27 09:26:49;;;;;;;57.30;3.00;;;;;;;;;;5143588;27;20827;-71
2023/09/27 09:29:18;;;;;;;57.30;2.80;;;;;;;;;;5131984;27;20467;-70
2023/09/27 09:31:53;;;;;;;57.13;2.57;;;;;;;;;;5132619;27;20481;-70
2023/09/27 09:34:20;;;;;;;56.37;2.50;;;;;;;;;;5132774;27;20531;-68
2023/09/27 09:36:48;;;;;;;57.30;2.67;;;;;;;;;;5132936;27;20455;-69
2023/09/27 09:39:17;;;;;;;56.60;2.60;;;;;;;;;;5132108;27;20480;-69
2023/09/27 09:41:49;;;;;;;57.47;2.80;;;;;;;;;;5133208;27;20441;-71
2023/09/27 09:44:19;;;;;;;56.90;3.13;;;;;;;;;;5132295;27;20453;-69
2023/09/27 09:46:46;;;;;;;57.50;2.50;;;;;;;;;;5132626;27;20445;-70
2023/09/27 09:49:15;;;;;;;56.50;2.40;;;;;;;;;;5131408;27;20444;-71
2023/09/27 09:51:46;;;;;;;56.27;2.10;;;;;;;;;;5132631;27;20468;-70
2023/09/27 09:54:16;;;;;;;56.30;1.90;;;;;;;;;;5131875;27;20597;-70
2023/09/27 09:56:44;;;;;;;56.10;1.90;;;;;;;;;;5137418;27;20444;-70
2023/09/27 09:59:15;;;;;;;55.73;1.90;;;;;;;;;;5152636;27;20454;-70
2023/09/27 10:01:45;;;;;;;56.10;2.13;;;;;;;;;;5153546;27;20440;-70
2023/09/27 10:04:14;;;;;;;56.00;2.00;;;;;;;;;;5153232;27;20974;-70
2023/09/27 10:06:41;;;;;;;56.30;2.10;;;;;;;;;;5153065;27;20527;-70
2023/09/27 10:09:13;;;;;;;55.90;1.97;;;;;;;;;;5152175;27;20975;-70
2023/09/27 10:11:41;;;;;;;55.70;1.90;;;;;;;;;;5153041;27;20533;-70
2023/09/27 10:14:10;;;;;;;56.67;2.10;;;;;;;;;;5153246;27;21142;-69
2023/09/27 10:16:38;;;;;;;55.73;1.97;;;;;;;;;;5152965;27;20504;-70
2023/09/27 10:19:06;;;;;;;55.40;1.80;;;;;;;;;;5152039;27;20460;-71
2023/09/27 10:21:33;;;;;;;55.60;1.80;;;;;;;;;;5152890;27;20486;-68
2023/09/27 10:24:04;;;;;;;55.43;1.73;;;;;;;;;;5150137;27;20879;-68
2023/09/27 10:26:35;;;;;;;55.37;1.90;;;;;;;;;;5152479;27;20856;-70
2023/09/27 10:29:13;;;;;;;55.40;1.80;;;;;;;;;;5151870;27;21016;-69
2023/09/27 10:32:00;;;;;;;54.83;1.80;;;;;;;;;;5152139;27;20495;-68
2023/09/27 10:34:41;;;;;;;55.57;2.10;;;;;;;;;;5152875;27;20933;-69
2023/09/27 10:37:08;;;;;;;54.83;1.57;;;;;;;;;;5152429;27;20467;-68
2023/09/27 10:39:39;;;;;;;55.17;1.80;;;;;;;;;;5151735;27;20450;-70
2023/09/27 10:42:06;;;;;;;55.57;1.97;;;;;;;;;;5152909;27;20500;-71
2023/09/27 10:44:34;;;;;;;54.67;1.70;;;;;;;;;;5152491;27;20674;-71
2023/09/27 10:47:03;;;;;;;54.97;1.80;;;;;;;;;;5152250;27;20448;-71
2023/09/27 10:49:38;;;;;;;55.60;2.00;;;;;;;;;;5151787;27;20448;-70
2023/09/27 10:52:15;;;;;;;55.00;1.70;;;;;;;;;;5151964;27;20486;-70
2023/09/27 10:54:43;;;;;;;54.90;2.07;;;;;;;;;;5152187;27;20435;-71
2023/09/27 10:57:10;;;;;;;54.87;1.70;;;;;;;;;;5152169;27;20464;-72
2023/09/27 10:59:37;;;;;;;54.63;1.70;;;;;;;;;;5151691;27;20442;-70
2023/09/27 11:02:06;;;;;;;54.87;1.80;;;;;;;;;;5152531;27;20439;-70
2023/09/27 11:04:35;;;;;;;55.00;1.90;;;;;;;;;;5149288;27;20453;-70
2023/09/27 11:07:04;;;;;;;54.67;1.50;;;;;;;;;;5131217;27;20445;-71
2023/09/27 11:09:32;;;;;;;54.70;1.60;;;;;;;;;;5130931;27;20444;-69
2023/09/27 11:12:00;;;;;;;55.07;1.93;;;;;;;;;;5131129;27;20484;-69
2023/09/27 11:14:27;;;;;;;54.90;1.93;;;;;;;;;;5131559;27;20506;-69
2023/09/27 11:16:54;;;;;;;54.37;1.70;;;;;;;;;;5131085;27;20444;-70
2023/09/27 11:19:28;;;;;;;54.57;1.87;;;;;;;;;;5130619;27;20447;-70
2023/09/27 11:21:56;;;;;;;54.70;2.53;;;;;;;;;;5131625;27;20476;-69
2023/09/27 11:24:24;;;;;;;54.67;1.90;;;;;;;;;;5131209;27;20451;-71
2023/09/27 11:26:53;;;;;;;54.57;1.90;;;;;;;;;;5131326;27;20448;-71
2023/09/27 11:29:26;;;;;;;54.40;1.77;;;;;;;;;;5131176;27;20449;-69
2023/09/27 11:31:57;;;;;;;54.53;1.80;;;;;;;;;;5151678;27;20444;-70
2023/09/27 11:34:24;;;;;;;54.60;1.80;;;;;;;;;;5152130;27;20524;-71
2023/09/27 11:36:52;;;;;;;54.90;2.23;;;;;;;;;;5151734;27;20451;-71
2023/09/27 11:39:20;;;;;;;54.50;1.70;;;;;;;;;;5150837;27;20451;-71
2023/09/27 11:41:47;;;;;;;54.03;1.93;;;;;;;;;;5151818;27;20476;-70
2023/09/27 11:44:19;;;;;;;54.50;2.00;;;;;;;;;;5152021;27;20451;-68
2023/09/27 11:46:47;;;;;;;54.23;1.80;;;;;;;;;;5152236;27;20823;-71
2023/09/27 11:49:15;;;;;;;54.17;2.00;;;;;;;;;;5152627;27;20443;-70
2023/09/27 11:51:43;;;;;;;54.30;1.60;;;;;;;;;;5153747;27;20467;-70
2023/09/27 11:54:12;;;;;;;53.97;1.70;;;;;;;;;;5152366;27;20444;-69
2023/09/27 11:56:40;;;;;;;54.27;1.93;;;;;;;;;;5152791;27;20446;-70
2023/09/27 11:59:07;;;;;;;54.40;1.70;;;;;;;;;;5152065;27;20560;-70
2023/09/27 12:01:36;;;;;;;54.13;2.03;;;;;;;;;;5153166;27;20544;-69
2023/09/27 12:04:03;;;;;;;53.90;1.83;;;;;;;;;;5152077;27;20798;-69
2023/09/27 12:06:31;;;;;;;54.17;1.90;;;;;;;;;;5151837;27;20450;-70
2023/09/27 12:08:58;;;;;;;54.30;2.00;;;;;;;;;;5150755;27;20499;-69
2023/09/27 12:11:26;;;;;;;54.50;2.00;;;;;;;;;;5151654;27;20440;-70
2023/09/27 12:13:53;;;;;;;54.40;1.70;;;;;;;;;;5151429;27;20439;-69
2023/09/27 12:16:21;;;;;;;54.17;1.90;;;;;;;;;;5151551;27;20451;-69
2023/09/27 12:18:49;;;;;;;54.00;1.77;;;;;;;;;;5153295;27;20459;-69
2023/09/27 12:21:17;;;;;;;53.87;1.80;;;;;;;;;;5154240;27;20486;-69
2023/09/27 12:23:44;;;;;;;54.10;1.90;;;;;;;;;;5154978;27;20436;-68
2023/09/27 12:26:12;;;;;;;53.90;1.70;;;;;;;;;;5155326;27;20446;-69
2023/09/27 12:28:39;;;;;;;54.50;1.63;;;;;;;;;;5134593;27;20456;-68
2023/09/27 12:31:06;;;;;;;54.00;1.60;;;;;;;;;;5133767;27;20437;-69
2023/09/27 12:33:34;;;;;;;54.27;1.67;;;;;;;;;;5134184;27;20444;-69
2023/09/27 12:36:03;;;;;;;54.57;1.80;;;;;;;;;;5134192;27;20449;-69
2023/09/27 12:38:30;;;;;;;54.37;2.00;;;;;;;;;;5133847;27;20525;-69
2023/09/27 12:41:00;;;;;;;54.43;1.80;;;;;;;;;;5134155;27;20494;-70
2023/09/27 12:43:27;;;;;;;54.50;1.70;;;;;;;;;;5134331;27;20668;-69
2023/09/27 12:45:54;;;;;;;54.37;1.47;;;;;;;;;;5134152;27;20456;-69
2023/09/27 12:48:21;;;;;;;54.63;1.83;;;;;;;;;;5133768;27;20839;-68
2023/09/27 12:50:48;;;;;;;54.90;2.00;;;;;;;;;;5133116;27;20457;-69
2023/09/27 12:53:17;;;;;;;54.57;1.90;;;;;;;;;;5134061;27;20451;-70
2023/09/27 12:55:44;;;;;;;54.63;2.00;;;;;;;;;;5134387;27;20527;-69
2023/09/27 12:58:12;;;;;;;54.50;1.80;;;;;;;;;;5134206;27;20475;-70
2023/09/27 13:00:39;;;;;;;54.50;1.80;;;;;;;;;;5133997;27;20445;-69
2023/09/27 13:03:06;;;;;;;54.40;1.93;;;;;;;;;;5133983;27;20472;-69
2023/09/27 13:05:35;;;;;;;54.07;1.73;;;;;;;;;;5134244;27;20441;-70
2023/09/27 13:08:02;;;;;;;54.17;1.83;;;;;;;;;;5134201;27;20472;-70
2023/09/27 13:10:32;;;;;;;54.00;1.93;;;;;;;;;;5133958;27;20445;-70
2023/09/27 13:12:59;;;;;;;53.87;1.70;;;;;;;;;;5133869;27;21004;-70
2023/09/27 13:15:26;;;;;;;54.50;1.80;;;;;;;;;;5133893;27;20801;-70
2023/09/27 13:17:53;;;;;;;54.03;1.70;;;;;;;;;;5133606;27;20847;-69
2023/09/27 13:20:20;;;;;;;54.27;1.80;;;;;;;;;;5133690;27;20445;-68
2023/09/27 13:22:48;;;;;;;54.43;2.00;;;;;;;;;;5133646;27;20473;-69
2023/09/27 13:25:16;;;;;;;54.30;1.60;;;;;;;;;;5133891;27;20449;-70
2023/09/27 13:27:44;;;;;;;54.40;1.60;;;;;;;;;;5133546;27;20457;-69
2023/09/27 13:30:13;;;;;;;54.57;1.70;;;;;;;;;;5132864;27;20448;-70
2023/09/27 13:32:40;;;;;;;54.90;1.80;;;;;;;;;;5133620;27;20441;-69
2023/09/27 13:35:08;;;;;;;55.00;1.70;;;;;;;;;;5133500;27;20440;-68
2023/09/27 13:37:35;;;;;;;55.40;1.70;;;;;;;;;;5133148;27;20999;-68
2023/09/27 13:40:04;;;;;;;55.20;1.73;;;;;;;;;;5133297;27;20544;-69
2023/09/27 13:42:32;;;;;;;55.27;1.87;;;;;;;;;;5133305;27;20480;-70
2023/09/27 13:45:02;;;;;;;55.50;1.83;;;;;;;;;;5133139;27;20453;-69
2023/09/27 13:47:30;;;;;;;55.07;1.83;;;;;;;;;;5132956;27;20490;-69
2023/09/27 13:49:57;;;;;;;55.27;1.80;;;;;;;;;;5132914;27;20494;-69
2023/09/27 13:52:24;;;;;;;55.37;1.70;;;;;;;;;;5133025;27;20444;-69
2023/09/27 13:54:51;;;;;;;55.17;1.70;;;;;;;;;;5133097;27;20452;-69
2023/09/27 13:57:18;;;;;;;55.10;1.80;;;;;;;;;;5132789;27;20472;-69
2023/09/27 13:59:46;;;;;;;55.40;1.80;;;;;;;;;;5132961;27;20455;-71
2023/09/27 14:02:14;;;;;;;54.80;1.47;;;;;;;;;;5133058;27;20481;-70
2023/09/27 14:04:42;;;;;;;55.13;1.60;;;;;;;;;;5132737;27;20476;-68
2023/09/27 14:07:09;;;;;;;54.97;1.57;;;;;;;;;;5132650;27;20461;-70
2023/09/27 14:09:36;;;;;;;55.67;1.70;;;;;;;;;;5132484;27;20447;-69
2023/09/27 14:12:03;;;;;;;55.27;1.77;;;;;;;;;;5132590;27;20440;-69
2023/09/27 14:14:31;;;;;;;55.53;1.63;;;;;;;;;;5132850;27;20453;-69
2023/09/27 14:16:58;;;;;;;55.50;1.83;;;;;;;;;;5132316;27;20445;-69
2023/09/27 14:19:26;;;;;;;55.53;1.90;;;;;;;;;;5132432;27;20449;-69
2023/09/27 14:21:54;;;;;;;55.57;1.80;;;;;;;;;;5132444;27;20477;-69
2023/09/27 14:24:23;;;;;;;55.43;1.73;;;;;;;;;;5132384;27;20457;-70
2023/09/27 14:26:51;;;;;;;55.60;1.90;;;;;;;;;;5132814;27;20513;-69
2023/09/27 14:29:18;;;;;;;55.70;2.00;;;;;;;;;;5132439;27;20444;-69
2023/09/27 14:31:46;;;;;;;55.40;1.70;;;;;;;;;;5132309;27;20875;-70
2023/09/27 14:34:13;;;;;;;55.43;2.00;;;;;;;;;;5132253;27;20532;-70
2023/09/27 14:36:42;;;;;;;55.60;1.80;;;;;;;;;;5132291;27;20439;-70